Time;durP1;ratioP1;P1;durP2;ratioP2;P2;SDS_P1;SDS_P2;PMS_P1;PMS_P2;Temp;Humidity;BMP_temperature;BMP_pressure;BME280_temperature;BME280_humidity;BME280_pressure;Samples;Min_cycle;Max_cycle;Signal;HPM_P1;HPM_P2
2022/04/21 00:01:12;;;;;;;3.85;1.65;;;;;;;9.51;41.48;99807.16;4939163;29;20059;-81
2022/04/21 00:03:39;;;;;;;3.88;1.83;;;;;;;9.53;41.79;99815.84;4939737;29;20055;-81
2022/04/21 00:06:06;;;;;;;2.45;1.70;;;;;;;9.34;42.23;99783.56;4939186;29;20086;-81
2022/04/21 00:08:33;;;;;;;2.88;1.98;;;;;;;9.49;41.69;99817.56;4939318;29;20062;-81
2022/04/21 00:11:00;;;;;;;3.30;1.40;;;;;;;9.47;42.32;99840.16;4938364;29;20056;-79
2022/04/21 00:13:27;;;;;;;3.15;1.60;;;;;;;9.19;41.82;99759.13;4938991;29;20574;-80
2022/04/21 00:15:54;;;;;;;3.47;1.88;;;;;;;9.45;42.10;99841.00;4939082;29;20111;-81
2022/04/21 00:18:21;;;;;;;3.92;2.13;;;;;;;9.40;42.46;99813.16;4939001;29;20060;-80
2022/04/21 00:20:47;;;;;;;2.88;1.38;;;;;;;9.32;42.58;99790.50;4939175;29;20055;-82
2022/04/21 00:23:33;;;;;;;3.15;2.30;;;;;;;9.36;42.59;99808.78;4939030;29;20060;-81
2022/04/21 00:26:01;;;;;;;3.47;1.90;;;;;;;9.29;42.64;99809.63;4938108;29;20095;-80
2022/04/21 00:28:28;;;;;;;4.18;2.20;;;;;;;9.29;42.94;99817.44;4938940;29;20075;-80
2022/04/21 00:30:56;;;;;;;2.60;1.83;;;;;;;9.10;42.66;99792.06;4939070;29;20112;-80
2022/04/21 00:33:23;;;;;;;3.00;2.38;;;;;;;9.23;42.93;99799.13;4940190;29;20059;-81
2022/04/21 00:35:50;;;;;;;3.33;2.55;;;;;;;9.31;42.63;99820.91;4938965;29;20075;-81
2022/04/21 00:38:17;;;;;;;2.97;2.10;;;;;;;9.29;42.76;99817.44;4938702;29;20148;-80
2022/04/21 00:40:44;;;;;;;3.67;2.33;;;;;;;9.28;42.62;99827.84;4937466;29;20059;-83
2022/04/21 00:43:11;;;;;;;5.68;2.80;;;;;;;9.23;42.99;99813.03;4940869;29;20066;-80
2022/04/21 00:45:38;;;;;;;2.70;2.15;;;;;;;9.18;43.46;99809.53;4945973;29;20062;-81
2022/04/21 00:48:06;;;;;;;3.20;2.50;;;;;;;9.14;43.51;99786.91;4944513;29;20059;-81
2022/04/21 00:50:36;;;;;;;3.38;2.63;;;;;;;9.08;43.18;99794.66;4945848;29;20066;-79
2022/04/21 00:53:04;;;;;;;4.00;3.05;;;;;;;9.23;43.49;99810.41;4944658;29;20146;-80
2022/04/21 00:55:32;;;;;;;3.53;2.70;;;;;;;9.26;43.46;99817.38;4946455;29;20150;-79
2022/04/21 00:58:01;;;;;;;3.20;2.70;;;;;;;8.87;43.83;99777.09;4938445;29;20110;-80
2022/04/21 01:00:28;;;;;;;3.25;2.30;;;;;;;9.18;44.32;99806.91;4939769;29;20501;-80
2022/04/21 01:02:57;;;;;;;3.55;2.70;;;;;;;9.10;44.00;99823.31;4939519;29;20122;-80
2022/04/21 01:05:30;;;;;;;6.15;2.40;;;;;;;9.16;44.03;99805.13;4937767;29;20063;-80
2022/04/21 01:08:01;;;;;;;6.75;2.83;;;;;;;9.14;43.93;99810.34;4937649;29;20055;-80
2022/04/21 01:10:30;;;;;;;3.40;2.58;;;;;;;9.11;44.16;99807.72;4937849;29;20058;-80
2022/04/21 01:12:59;;;;;;;4.35;2.55;;;;;;;9.14;44.01;99815.56;4937549;29;20067;-81
2022/04/21 01:15:26;;;;;;;4.25;2.65;;;;;;;8.99;44.37;99776.31;4937807;29;20186;-80
2022/04/21 01:17:54;;;;;;;3.25;2.30;;;;;;;9.15;44.38;99804.28;4932169;29;20056;-81
2022/04/21 01:20:22;;;;;;;4.80;2.67;;;;;;;9.14;44.23;99797.31;4918741;29;20110;-80
2022/04/21 01:22:50;;;;;;;4.20;2.58;;;;;;;8.98;44.47;99775.47;4936493;29;20054;-81
2022/04/21 01:25:19;;;;;;;2.92;2.10;;;;;;;9.15;44.73;99816.44;4936459;29;20052;-81
2022/04/21 01:27:48;;;;;;;3.58;2.22;;;;;;;9.10;45.05;99826.81;4934404;29;20056;-79
2022/04/21 01:30:14;;;;;;;3.63;2.58;;;;;;;9.07;44.68;99815.50;4930003;29;20064;-81
2022/04/21 01:32:48;;;;;;;4.57;2.13;;;;;;;9.04;44.83;99828.50;4917937;29;20427;-81
2022/04/21 01:35:15;;;;;;;2.72;2.28;;;;;;;8.98;44.97;99838.00;4918524;29;20048;-83
2022/04/21 01:43:14;;;;;;;3.40;2.22;;;;;;;8.96;45.53;99821.47;4917428;29;20142;-80
2022/04/21 01:45:42;;;;;;;3.42;1.80;;;;;;;8.86;45.63;99803.13;4918038;29;20056;-81
2022/04/21 01:48:09;;;;;;;3.53;2.10;;;;;;;8.88;45.27;99822.25;4918305;29;20052;-80
2022/04/21 01:50:36;;;;;;;3.83;2.05;;;;;;;8.90;45.53;99812.72;4918195;29;20565;-80
2022/04/21 01:53:03;;;;;;;4.20;1.80;;;;;;;8.76;46.11;99800.44;4918076;29;20056;-80
2022/04/21 01:55:30;;;;;;;2.60;1.80;;;;;;;8.85;46.51;99810.09;4918073;29;20111;-80
2022/04/21 01:57:57;;;;;;;3.28;2.38;;;;;;;8.79;46.14;99821.31;4917693;29;20502;-81
2022/04/21 02:00:25;;;;;;;3.10;1.80;;;;;;;8.83;46.20;99822.22;4932764;29;20060;-82
2022/04/21 02:02:52;;;;;;;2.72;1.77;;;;;;;8.59;46.12;99775.97;4917299;29;20498;-80
2022/04/21 02:05:20;;;;;;;5.97;2.20;;;;;;;8.59;46.59;99791.59;4922791;29;20473;-80
2022/04/21 02:07:47;;;;;;;1.67;1.58;;;;;;;8.74;46.43;99807.38;4922380;29;20151;-80
2022/04/21 02:10:16;;;;;;;1.73;1.55;;;;;;;8.68;47.27;99789.09;4917822;29;20068;-80
2022/04/21 02:12:45;;;;;;;4.27;2.13;;;;;;;8.64;47.29;99812.47;4917220;29;20123;-79
2022/04/21 02:15:13;;;;;;;4.47;2.10;;;;;;;8.50;47.09;99768.09;4917664;29;20071;-81
2022/04/21 02:17:40;;;;;;;3.10;1.80;;;;;;;8.67;47.52;99791.66;4917693;29;20056;-79
2022/04/21 02:20:09;;;;;;;3.85;1.95;;;;;;;8.64;47.89;99809.88;4917410;29;20056;-80
2022/04/21 02:22:37;;;;;;;2.67;1.80;;;;;;;8.59;47.77;99802.88;4917304;29;20098;-80
2022/04/21 02:25:06;;;;;;;6.03;2.20;;;;;;;8.53;48.08;99805.41;4917169;29;20060;-80
2022/04/21 02:27:35;;;;;;;3.50;1.90;;;;;;;8.51;48.25;99806.25;4917364;29;20063;-79
2022/04/21 02:30:07;;;;;;;2.63;2.03;;;;;;;8.46;48.11;99789.75;4917261;29;20296;-80
2022/04/21 02:32:35;;;;;;;3.72;2.00;;;;;;;8.48;48.73;99798.44;4917354;29;20062;-79
2022/04/21 02:35:03;;;;;;;2.25;1.73;;;;;;;8.50;48.67;99812.34;4931389;29;20056;-80
2022/04/21 02:37:41;;;;;;;4.57;1.60;;;;;;;7.84;48.54;99695.34;4915975;29;20055;-78
2022/04/21 02:40:10;;;;;;;2.20;1.85;;;;;;;8.45;48.74;99808.81;4917277;29;20094;-79
2022/04/21 02:42:40;;;;;;;2.80;1.88;;;;;;;8.37;48.71;99809.56;4917114;29;20655;-79
2022/04/21 02:45:13;;;;;;;4.38;1.95;;;;;;;8.42;48.88;99812.25;4917352;29;20055;-80
2022/04/21 02:47:42;;;;;;;2.28;1.77;;;;;;;8.38;49.20;99798.28;4918174;29;20076;-81
2022/04/21 02:50:12;;;;;;;3.20;1.80;;;;;;;8.37;48.82;99835.59;4917389;29;20056;-81
2022/04/21 02:52:40;;;;;;;3.17;1.70;;;;;;;8.33;48.87;99819.94;4922958;29;20063;-80
2022/04/21 02:57:54;;;;;;;2.40;1.60;;;;;;;8.07;49.25;99768.44;4930503;29;20060;-79
2022/04/21 03:00:22;;;;;;;3.75;1.75;;;;;;;8.25;49.66;99799.00;4929708;29;20111;-80
2022/04/21 03:02:48;;;;;;;2.95;1.77;;;;;;;8.32;49.41;99812.97;4945654;29;20091;-80
2022/04/21 03:05:16;;;;;;;2.17;1.65;;;;;;;8.31;49.60;99803.41;4932086;29;20056;-80
2022/04/21 03:07:43;;;;;;;2.20;1.58;;;;;;;8.23;49.22;99787.69;4934420;29;20514;-81
2022/04/21 03:10:10;;;;;;;3.17;1.80;;;;;;;8.37;49.44;99817.38;4934758;29;20064;-80
2022/04/21 03:12:37;;;;;;;5.07;2.00;;;;;;;8.24;49.33;99785.97;4934841;29;20120;-80
2022/04/21 03:15:05;;;;;;;3.38;2.00;;;;;;;8.41;49.48;99805.31;4932046;29;20064;-79
2022/04/21 03:17:31;;;;;;;1.45;1.33;;;;;;;8.50;49.23;99835.78;4933067;29;20072;-80
2022/04/21 03:19:58;;;;;;;1.90;1.70;;;;;;;8.43;49.58;99820.91;4933852;29;20062;-80
2022/04/21 03:25:11;;;;;;;2.35;1.73;;;;;;;8.46;49.70;99852.22;4938321;29;20115;-80
2022/04/21 03:27:38;;;;;;;3.70;1.85;;;;;;;8.42;49.48;99840.88;4936178;29;20088;-79
2022/04/21 03:30:08;;;;;;;3.47;1.80;;;;;;;8.33;49.43;99812.97;4934611;29;20062;-79
2022/04/21 03:32:36;;;;;;;4.20;1.85;;;;;;;8.39;49.75;99852.09;4937837;29;20052;-81
2022/04/21 03:35:03;;;;;;;2.80;1.65;;;;;;;8.26;49.70;99808.56;4935951;29;20119;-80
2022/04/21 03:37:30;;;;;;;3.33;2.03;;;;;;;8.44;49.50;99859.13;4930497;29;20062;-80
2022/04/21 03:39:57;;;;;;;2.47;1.70;;;;;;;7.97;48.89;99736.22;4944106;29;20060;-80
2022/04/21 03:42:31;;;;;;;3.42;1.88;;;;;;;8.21;49.18;99779.00;4933563;29;20071;-82
2022/04/21 03:45:02;;;;;;;1.85;1.45;;;;;;;8.54;49.36;99855.75;4932973;29;20055;-80
2022/04/21 03:47:29;;;;;;;3.22;1.45;;;;;;;8.29;49.67;99787.78;4927600;29;20052;-80
2022/04/21 03:49:56;;;;;;;2.42;1.70;;;;;;;8.44;49.54;99822.69;4923297;29;20048;-80
2022/04/21 03:52:24;;;;;;;2.03;1.50;;;;;;;8.43;49.48;99824.38;4937374;29;20059;-81
2022/04/21 03:54:50;;;;;;;2.67;1.70;;;;;;;8.45;50.16;99838.28;4927372;29;20052;-81
2022/04/21 03:57:17;;;;;;;2.13;1.92;;;;;;;8.52;49.70;99828.84;4932928;29;20051;-80
2022/04/21 03:59:44;;;;;;;2.72;1.48;;;;;;;8.49;49.49;99832.28;4938082;29;20055;-81
2022/04/21 04:02:11;;;;;;;2.17;1.75;;;;;;;8.44;49.53;99846.13;4937650;29;20082;-81
2022/04/21 04:04:38;;;;;;;1.88;1.73;;;;;;;8.19;49.57;99766.00;4931184;29;20497;-80
2022/04/21 04:12:42;;;;;;;1.98;1.30;;;;;;;8.40;49.72;99833.03;4935787;29;20123;-78
2022/04/21 04:15:12;;;;;;;2.92;1.63;;;;;;;8.44;49.20;99827.88;4938432;29;20525;-81
2022/04/21 04:17:39;;;;;;;1.35;1.25;;;;;;;8.43;50.33;99810.50;4939187;29;20506;-79
2022/04/21 04:20:07;;;;;;;2.80;1.58;;;;;;;8.39;49.54;99827.81;4938768;29;20059;-82
2022/04/21 04:22:40;;;;;;;2.03;1.40;;;;;;;8.36;49.96;99818.22;4938157;29;20111;-80
2022/04/21 04:25:10;;;;;;;4.07;1.58;;;;;;;8.32;49.97;99808.63;4939301;29;20064;-80
2022/04/21 04:27:37;;;;;;;2.08;1.45;;;;;;;8.43;50.05;99813.97;4940283;29;20054;-80
2022/04/21 04:30:07;;;;;;;3.92;1.60;;;;;;;8.46;50.20;99815.78;4938623;29;20138;-79
2022/04/21 04:32:35;;;;;;;;;;;;;;;8.28;49.94;99814.66;4937047;29;20478;-79
2022/04/21 04:35:03;;;;;;;2.33;1.27;;;;;;;8.36;50.42;99832.97;4937630;29;19926;-80
2022/04/21 04:37:30;;;;;;;3.00;1.27;;;;;;;8.21;50.55;99779.00;4937336;29;20055;-80
2022/04/21 04:39:59;;;;;;;5.72;1.75;;;;;;;8.39;50.39;99807.84;4938103;29;20513;-78
2022/04/21 04:42:28;;;;;;;3.20;2.03;;;;;;;8.17;50.54;99775.50;4953233;29;20052;-79
2022/04/21 04:47:41;;;;;;;1.30;1.20;;;;;;;8.31;50.38;99827.72;4931520;29;20052;-79
2022/04/21 04:50:08;;;;;;;3.95;1.58;;;;;;;8.33;50.47;99814.72;4925550;29;20056;-78
2022/04/21 04:53:14;;;;;;;4.35;1.70;;;;;;;8.30;50.51;99807.75;4920791;29;20095;-79
2022/04/21 04:55:42;;;;;;;5.05;1.73;;;;;;;8.19;50.81;99815.44;4937177;29;20513;-78
2022/04/21 04:58:11;;;;;;;2.30;1.70;;;;;;;8.28;50.97;99834.59;4938492;29;20055;-78
2022/04/21 05:00:38;;;;;;;1.80;1.48;;;;;;;8.19;50.98;99805.03;4929238;29;20557;-78
2022/04/21 05:03:05;;;;;;;1.35;1.25;;;;;;;8.23;51.67;99821.53;4935124;29;20055;-80
2022/04/21 05:05:32;;;;;;;1.70;1.60;;;;;;;8.16;51.26;99845.72;4937895;29;20445;-77
2022/04/21 05:08:02;;;;;;;2.67;1.48;;;;;;;8.16;51.86;99837.94;4937811;29;20110;-80
2022/04/21 05:10:29;;;;;;;1.27;1.17;;;;;;;8.19;51.34;99880.50;4937269;29;20131;-79
2022/04/21 05:12:59;;;;;;;3.22;1.55;;;;;;;8.19;51.66;99843.16;4937713;29;20060;-78
2022/04/21 05:15:26;;;;;;;2.38;1.67;;;;;;;8.25;52.43;99824.16;4952114;29;20070;-79
2022/04/21 05:17:55;;;;;;;3.50;1.90;;;;;;;8.20;52.88;99848.41;4937184;29;20510;-81
2022/04/21 05:20:25;;;;;;;1.80;1.67;;;;;;;8.06;53.39;99828.25;4936780;29;20159;-78
2022/04/21 05:23:00;;;;;;;1.40;1.30;;;;;;;7.75;53.57;99814.84;4937478;29;20107;-78
2022/04/21 05:25:31;;;;;;;4.00;1.92;;;;;;;8.24;54.08;99898.75;4937025;29;20060;-79
2022/04/21 05:27:59;;;;;;;4.18;2.10;;;;;;;8.00;54.76;99821.22;4944169;29;20052;-78
2022/04/21 05:33:14;;;;;;;2.63;2.05;;;;;;;8.25;55.09;99889.22;4937610;29;20071;-80
2022/04/21 05:35:42;;;;;;;3.70;1.65;;;;;;;8.21;55.63;99898.69;4937161;29;20115;-77
2022/04/21 05:38:09;;;;;;;4.28;1.77;;;;;;;8.19;55.66;99880.50;4937051;29;20433;-78
2022/04/21 05:40:36;;;;;;;2.35;1.63;;;;;;;8.17;55.80;99894.31;4937653;29;20063;-79
2022/04/21 05:43:08;;;;;;;2.80;1.92;;;;;;;7.96;56.03;99846.34;4937254;29;20067;-77
2022/04/21 05:45:35;;;;;;;1.98;1.75;;;;;;;7.89;55.87;99838.44;4937112;29;20146;-78
2022/04/21 05:48:03;;;;;;;1.80;1.70;;;;;;;8.27;55.60;99901.38;4936215;29;20075;-79
2022/04/21 05:50:30;;;;;;;2.40;1.90;;;;;;;8.26;56.17;99878.84;4937153;29;20058;-78
2022/04/21 05:53:01;;;;;;;2.42;1.85;;;;;;;8.06;56.30;99860.34;4937103;29;20059;-79
2022/04/21 05:55:34;;;;;;;2.08;1.35;;;;;;;8.10;56.23;99890.75;4937298;29;20058;-79
2022/04/21 05:58:01;;;;;;;2.53;1.90;;;;;;;7.98;57.22;99875.84;4936988;29;20055;-78
2022/04/21 06:00:28;;;;;;;2.00;1.80;;;;;;;8.10;57.08;99923.72;4937082;29;20146;-77
2022/04/21 06:02:56;;;;;;;1.70;1.60;;;;;;;8.09;57.44;99920.25;4937088;29;20063;-78
2022/04/21 06:05:23;;;;;;;1.98;1.70;;;;;;;7.84;57.15;99899.91;4937119;29;20063;-78
2022/04/21 06:07:50;;;;;;;5.07;1.48;;;;;;;8.13;56.81;99937.66;4936098;29;20060;-78
2022/04/21 06:10:17;;;;;;;2.75;1.70;;;;;;;7.82;57.15;99873.88;4936556;29;20090;-80
2022/04/21 06:12:44;;;;;;;3.92;1.85;;;;;;;8.04;57.26;99927.09;4937196;29;20162;-79
2022/04/21 06:15:11;;;;;;;3.60;1.90;;;;;;;7.96;57.54;99920.91;4936317;29;20135;-80
2022/04/21 06:17:38;;;;;;;1.88;1.70;;;;;;;8.11;57.33;99931.53;4937190;29;20091;-79
2022/04/21 06:20:12;;;;;;;2.40;1.67;;;;;;;8.05;57.13;99926.25;4931790;29;20135;-80
2022/04/21 06:22:40;;;;;;;2.58;1.80;;;;;;;7.53;57.02;99855.25;4920752;29;20119;-78
2022/04/21 06:25:07;;;;;;;2.58;1.73;;;;;;;8.10;56.97;99934.97;4916657;29;20480;-78
2022/04/21 06:27:34;;;;;;;4.43;2.10;;;;;;;8.17;57.21;99954.16;4917134;29;20534;-79
2022/04/21 06:30:01;;;;;;;2.22;1.65;;;;;;;8.18;56.80;99940.31;4917003;29;20064;-79
2022/04/21 06:32:29;;;;;;;3.03;1.88;;;;;;;8.25;56.31;99965.56;4917485;29;20098;-79
2022/04/21 06:34:57;;;;;;;2.67;1.80;;;;;;;8.15;56.40;99928.13;4917057;29;20063;-79
2022/04/21 06:37:24;;;;;;;2.92;1.70;;;;;;;8.35;56.52;99970.03;4916081;29;20474;-78
2022/04/21 06:39:51;;;;;;;5.18;2.03;;;;;;;8.32;56.50;99969.97;4917093;29;20062;-78
2022/04/21 06:42:18;;;;;;;2.42;2.00;;;;;;;8.07;56.41;99950.56;4917051;29;20099;-78
2022/04/21 06:50:17;;;;;;;1.95;1.60;;;;;;;8.35;56.54;99980.47;4917136;29;20052;-79
2022/04/21 06:52:44;;;;;;;2.25;1.77;;;;;;;8.23;56.51;99949.03;4917075;29;20059;-79
2022/04/21 06:55:11;;;;;;;2.92;1.80;;;;;;;8.05;56.15;99934.06;4917599;29;20066;-79
2022/04/21 06:57:37;;;;;;;3.15;1.80;;;;;;;8.09;57.21;99955.78;4919904;29;20064;-78
2022/04/21 07:00:05;;;;;;;2.10;1.90;;;;;;;8.32;56.84;100008.16;4919859;29;20059;-79
2022/04/21 07:02:32;;;;;;;2.75;1.73;;;;;;;8.32;57.35;100014.22;4918802;29;20056;-79
2022/04/21 07:05:08;;;;;;;4.05;2.35;;;;;;;8.27;58.25;100004.63;4920353;29;20056;-78
2022/04/21 07:07:35;;;;;;;3.53;2.17;;;;;;;8.26;58.46;100006.34;4920508;29;20051;-78
2022/04/21 07:10:03;;;;;;;3.20;2.10;;;;;;;8.24;58.49;100017.56;4918498;29;20051;-77
2022/04/21 07:12:31;;;;;;;4.22;2.30;;;;;;;8.15;58.65;99981.88;4915664;29;20403;-77
2022/04/21 07:15:00;;;;;;;4.15;2.47;;;;;;;8.38;59.17;100026.47;4931110;29;20070;-79
2022/04/21 07:17:27;;;;;;;2.88;2.08;;;;;;;8.32;58.84;100023.78;4917111;29;20055;-77
2022/04/21 07:19:54;;;;;;;4.70;2.13;;;;;;;8.28;59.41;99998.56;4916876;29;20064;-79
2022/04/21 07:22:25;;;;;;;2.50;2.10;;;;;;;8.33;59.88;100022.94;4916508;29;20056;-79
2022/04/21 07:24:53;;;;;;;2.55;2.00;;;;;;;8.30;60.02;100028.97;4916722;29;20056;-79
2022/04/21 07:27:20;;;;;;;2.65;1.95;;;;;;;8.42;60.44;100027.44;4917867;29;20558;-80
2022/04/21 07:29:48;;;;;;;3.03;2.22;;;;;;;8.25;60.86;100016.75;4918172;29;20052;-81
2022/04/21 07:32:16;;;;;;;5.65;2.40;;;;;;;8.32;61.40;100006.41;4916106;29;20052;-79
2022/04/21 07:34:44;;;;;;;4.93;2.47;;;;;;;8.48;61.77;100031.00;4916588;29;20060;-82
2022/04/21 07:37:12;;;;;;;2.25;1.98;;;;;;;8.33;61.03;100017.72;4916600;29;20058;-80
2022/04/21 07:39:40;;;;;;;5.10;2.47;;;;;;;8.23;61.52;100019.31;4916433;29;20052;-81
2022/04/21 07:42:11;;;;;;;5.22;2.10;;;;;;;8.10;62.34;100032.97;4922043;29;20479;-80
2022/04/21 07:44:39;;;;;;;2.05;1.80;;;;;;;8.02;62.79;100063.19;4918624;29;20422;-78
2022/04/21 07:47:07;;;;;;;2.70;1.90;;;;;;;7.92;62.80;100063.06;4915782;29;20540;-79
2022/04/21 07:49:48;;;;;;;3.08;1.95;;;;;;;7.90;63.30;100054.34;4916397;29;20052;-77
2022/04/21 07:55:18;;;;;;;3.08;2.30;;;;;;;7.87;63.98;100061.19;4926005;29;20138;-77
2022/04/21 07:57:46;;;;;;;2.50;1.83;;;;;;;7.77;64.63;100058.44;4925197;29;20060;-78
2022/04/21 08:00:16;;;;;;;3.28;2.00;;;;;;;7.78;65.21;100064.53;4924289;29;20103;-78
2022/04/21 08:02:47;;;;;;;2.50;2.08;;;;;;;7.78;65.24;100068.00;4925209;29;20056;-77
2022/04/21 08:05:17;;;;;;;4.72;2.33;;;;;;;7.58;65.51;100025.16;4924058;29;20051;-77
2022/04/21 08:07:46;;;;;;;5.20;2.00;;;;;;;7.63;65.82;100054.72;4926455;29;20058;-78
2022/04/21 08:10:19;;;;;;;3.70;2.15;;;;;;;7.72;65.78;100061.81;4936321;29;20086;-79
2022/04/21 08:12:48;;;;;;;2.58;2.13;;;;;;;7.66;66.20;100083.38;4931035;29;20052;-78
2022/04/21 08:15:23;;;;;;;2.90;2.13;;;;;;;7.64;66.24;100072.09;4919616;29;20447;-79
2022/04/21 08:17:52;;;;;;;3.25;2.22;;;;;;;7.47;66.96;100037.09;4927779;29;20070;-78
2022/04/21 08:20:18;;;;;;;4.05;2.22;;;;;;;7.57;67.81;100081.50;4933917;29;20059;-78
2022/04/21 08:22:45;;;;;;;3.90;2.33;;;;;;;7.49;68.02;100066.59;4938827;29;20059;-77
2022/04/21 08:34:09;;;;;;;2.78;1.63;;;;;;;7.68;68.35;100112.91;4938122;29;20048;-80
2022/04/21 08:36:36;;;;;;;2.90;2.40;;;;;;;7.44;69.07;100050.03;4940104;29;20060;-79
2022/04/21 08:39:04;;;;;;;3.05;2.30;;;;;;;7.41;68.63;100053.44;4938191;29;20081;-78
2022/04/21 08:41:42;;;;;;;3.15;2.00;;;;;;;7.58;69.12;100110.97;4938543;29;20521;-80
2022/04/21 08:44:10;;;;;;;2.65;2.10;;;;;;;7.65;69.62;100122.34;4938434;29;20505;-79
2022/04/21 08:46:39;;;;;;;3.80;2.42;;;;;;;7.62;69.76;100119.72;4938383;29;20502;-78
2022/04/21 08:49:07;;;;;;;4.78;2.55;;;;;;;7.63;69.94;100113.66;4938176;29;20063;-79
2022/04/21 08:51:34;;;;;;;2.88;2.00;;;;;;;7.36;70.37;100089.75;4939610;29;20052;-78
2022/04/21 08:54:05;;;;;;;3.15;2.30;;;;;;;7.47;70.20;100123.75;4938229;29;20059;-80
2022/04/21 08:56:32;;;;;;;3.78;2.38;;;;;;;7.49;71.18;100121.19;4938477;29;20055;-78
2022/04/21 08:58:59;;;;;;;4.15;2.60;;;;;;;7.50;71.23;100122.94;4938802;29;20067;-79
2022/04/21 09:01:27;;;;;;;3.22;2.42;;;;;;;7.59;71.33;100137.00;4938441;29;20528;-78
2022/04/21 09:03:53;;;;;;;4.38;2.38;;;;;;;7.49;71.24;100122.06;4938278;29;20443;-78
2022/04/21 09:06:22;;;;;;;3.85;2.58;;;;;;;7.55;71.50;100139.47;4937124;29;20062;-78
2022/04/21 09:09:16;;;;;;;3.28;2.53;;;;;;;7.60;71.24;100130.06;4937527;29;20172;-78
2022/04/21 09:11:45;;;;;;;5.13;2.97;;;;;;;7.67;71.35;100149.25;4938332;29;20066;-81
2022/04/21 09:14:15;;;;;;;3.08;2.30;;;;;;;7.65;71.50;100156.16;4937910;29;20100;-77
2022/04/21 09:16:42;;;;;;;4.18;2.60;;;;;;;7.61;72.06;100165.59;4937959;29;20513;-80
2022/04/21 09:19:09;;;;;;;3.58;2.70;;;;;;;7.34;72.13;100120.03;4935151;29;20044;-78
2022/04/21 09:21:37;;;;;;;3.22;2.40;;;;;;;7.52;72.26;100158.50;4918038;29;20068;-78
2022/04/21 09:24:21;;;;;;;5.35;2.67;;;;;;;7.55;72.26;100157.69;4924280;29;20052;-78
2022/04/21 09:26:50;;;;;;;3.42;2.60;;;;;;;7.45;72.60;100138.44;4928546;29;20087;-79
2022/04/21 09:29:33;;;;;;;3.22;2.55;;;;;;;7.59;72.51;100157.78;4920454;29;20083;-78
2022/04/21 09:32:02;;;;;;;2.92;2.38;;;;;;;7.54;72.47;100164.59;4918780;29;20074;-79
2022/04/21 09:34:36;;;;;;;2.88;2.40;;;;;;;7.34;72.97;100132.16;4919125;29;20052;-78
2022/04/21 09:37:13;;;;;;;;;;;;;;;7.29;72.78;100167.53;4920224;29;20064;-78
2022/04/21 09:39:41;;;;;;;2.70;2.20;;;;;;;7.33;73.14;100165.03;4920019;29;19975;-78
2022/04/21 09:42:08;;;;;;;4.53;2.50;;;;;;;7.08;73.33;100121.22;4918484;29;20581;-79
2022/04/21 09:47:47;;;;;;;5.43;2.47;;;;;;;7.51;73.36;100166.28;4917492;29;20051;-78
2022/04/21 09:50:14;;;;;;;2.63;2.08;;;;;;;7.51;72.54;100180.16;4917755;29;20056;-79
2022/04/21 09:52:49;;;;;;;4.20;2.10;;;;;;;7.70;72.65;100167.50;4918271;29;20060;-78
2022/04/21 09:55:26;;;;;;;5.15;2.60;;;;;;;7.84;72.46;100167.81;4917940;29;20159;-79
2022/04/21 09:58:04;;;;;;;2.88;2.30;;;;;;;7.94;71.70;100190.53;4918121;29;20067;-78
2022/04/21 10:00:33;;;;;;;3.00;2.33;;;;;;;7.96;71.49;100184.53;4918026;29;20059;-78
2022/04/21 10:03:02;;;;;;;3.70;2.30;;;;;;;7.94;71.44;100190.53;4917857;29;20055;-79
2022/04/21 10:05:34;;;;;;;3.63;2.60;;;;;;;7.91;71.08;100191.34;4921520;29;20056;-79
2022/04/21 10:08:04;;;;;;;2.40;1.92;;;;;;;7.93;71.48;100194.84;4932732;29;20055;-81
2022/04/21 10:10:33;;;;;;;2.80;2.33;;;;;;;7.78;71.39;100185.03;4927265;29;20099;-81
2022/04/21 10:13:02;;;;;;;4.68;2.47;;;;;;;7.68;71.15;100174.41;4925870;29;20056;-79
2022/04/21 10:15:30;;;;;;;3.08;2.35;;;;;;;7.88;71.33;100198.22;4927415;29;20060;-79
2022/04/21 10:17:57;;;;;;;2.88;2.40;;;;;;;7.85;72.02;100204.25;4926345;29;20056;-79
2022/04/21 10:20:26;;;;;;;3.63;2.00;;;;;;;7.81;71.60;100194.63;4927252;29;20076;-79
2022/04/21 10:22:56;;;;;;;3.50;2.60;;;;;;;7.88;71.87;100198.22;4927557;29;20056;-79
2022/04/21 10:25:37;;;;;;;4.35;2.30;;;;;;;7.96;71.34;100200.13;4925183;29;20556;-79
2022/04/21 10:28:39;;;;;;;3.60;2.45;;;;;;;7.97;71.27;100220.06;4930194;29;20577;-79
2022/04/21 10:31:38;;;;;;;3.03;2.58;;;;;;;7.93;71.25;100246.00;4925075;29;20538;-79
2022/04/21 10:34:06;;;;;;;5.70;2.70;;;;;;;7.90;71.50;100227.75;4927141;29;20148;-79
2022/04/21 10:36:33;;;;;;;3.78;2.40;;;;;;;7.94;71.83;100252.97;4926414;29;20056;-79
2022/04/21 10:39:18;;;;;;;3.40;2.35;;;;;;;7.85;71.67;100244.97;4926330;29;20061;-79
2022/04/21 10:41:46;;;;;;;2.90;2.42;;;;;;;7.76;71.90;100250.84;4927447;29;20059;-80
2022/04/21 10:44:25;;;;;;;3.30;2.42;;;;;;;7.61;71.93;100225.41;4930215;29;20471;-78
2022/04/21 10:47:31;;;;;;;3.05;2.38;;;;;;;7.63;72.09;100251.44;4927161;29;20060;-81
2022/04/21 10:50:11;;;;;;;4.55;2.65;;;;;;;7.64;72.27;100232.41;4926272;29;20090;-80
2022/04/21 10:57:58;;;;;;;4.85;3.00;;;;;;;7.86;71.61;100255.41;4924647;29;20060;-78
2022/04/21 11:00:30;;;;;;;3.80;2.40;;;;;;;7.88;72.16;100253.72;4917039;29;20578;-77
2022/04/21 11:03:05;;;;;;;5.22;2.80;;;;;;;8.05;71.45;100281.81;4917075;29;20479;-81
2022/04/21 11:05:39;;;;;;;4.15;2.40;;;;;;;8.06;71.33;100260.13;4917242;29;20528;-79
2022/04/21 11:08:14;;;;;;;4.50;2.17;;;;;;;7.88;70.55;100271.94;4917359;29;20529;-79
2022/04/21 11:10:43;;;;;;;3.60;2.60;;;;;;;7.82;71.79;100271.78;4917620;29;20159;-79
2022/04/21 11:13:13;;;;;;;3.88;2.50;;;;;;;7.88;71.30;100284.94;4916949;29;20092;-81
2022/04/21 11:15:50;;;;;;;4.13;2.72;;;;;;;7.86;71.36;100293.56;4918006;29;20123;-79
2022/04/21 11:18:19;;;;;;;2.85;1.98;;;;;;;7.86;70.74;100301.34;4931825;29;20064;-80
2022/04/21 11:20:51;;;;;;;2.15;1.80;;;;;;;7.58;70.03;100299.03;4915742;29;20056;-80
2022/04/21 11:23:44;;;;;;;2.58;2.38;;;;;;;7.42;69.96;100278.75;4934695;29;20070;-80
2022/04/21 11:26:12;;;;;;;2.67;2.40;;;;;;;7.51;70.42;100304.94;4936404;29;20058;-81
2022/04/21 11:28:45;;;;;;;3.72;2.67;;;;;;;7.48;70.51;100278.84;4942036;29;20082;-81
2022/04/21 11:31:13;;;;;;;4.90;2.60;;;;;;;7.36;70.50;100279.47;4937118;29;20059;-81
2022/04/21 11:33:40;;;;;;;2.67;2.05;;;;;;;7.47;70.47;100287.50;4936507;29;20087;-80
2022/04/21 11:36:09;;;;;;;3.90;2.25;;;;;;;7.59;70.30;100294.69;4936374;29;20079;-81
2022/04/21 11:38:41;;;;;;;2.38;2.17;;;;;;;7.55;70.48;100285.97;4935835;29;20055;-80
2022/04/21 11:41:10;;;;;;;2.20;2.00;;;;;;;7.55;70.45;100296.38;4935984;29;20131;-80
2022/04/21 11:43:47;;;;;;;3.72;2.55;;;;;;;7.56;70.43;100299.84;4935724;29;20403;-79
2022/04/21 11:46:18;;;;;;;4.32;2.35;;;;;;;7.63;70.21;100303.44;4938435;29;20393;-81
2022/04/21 11:48:46;;;;;;;4.65;2.40;;;;;;;7.56;70.51;100282.50;4939524;29;20131;-81
2022/04/21 11:51:30;;;;;;;2.45;2.20;;;;;;;7.64;70.63;100310.41;4939647;29;20063;-79
2022/04/21 11:54:06;;;;;;;5.93;2.55;;;;;;;7.39;70.87;100260.47;4939598;29;20452;-79
2022/04/21 11:56:34;;;;;;;3.95;2.60;;;;;;;7.54;71.11;100305.00;4939002;29;20051;-80
2022/04/21 11:59:07;;;;;;;3.47;2.50;;;;;;;7.51;71.21;100276.34;4938527;29;20051;-80
2022/04/21 12:07:15;;;;;;;3.85;2.60;;;;;;;7.52;71.55;100306.69;4939622;29;20079;-79
2022/04/21 12:09:44;;;;;;;3.97;2.50;;;;;;;7.33;71.65;100278.50;4939300;29;20051;-79
2022/04/21 12:12:11;;;;;;;6.90;3.22;;;;;;;7.49;72.09;100305.75;4939637;29;20053;-78
2022/04/21 12:14:41;;;;;;;5.00;2.50;;;;;;;7.44;71.88;100295.22;4937837;29;20060;-79
2022/04/21 12:17:10;;;;;;;6.65;3.50;;;;;;;7.39;71.91;100323.72;4939947;29;20065;-81
2022/04/21 12:19:45;;;;;;;3.50;2.05;;;;;;;7.37;72.27;100314.13;4939040;29;20087;-80
2022/04/21 12:22:17;;;;;;;4.60;2.60;;;;;;;7.41;72.67;100313.34;4939026;29;20502;-80
2022/04/21 12:24:53;;;;;;;3.17;2.42;;;;;;;7.37;72.39;100306.31;4939766;29;20051;-81
2022/04/21 12:27:22;;;;;;;4.03;2.22;;;;;;;7.41;72.75;100315.97;4938377;29;20414;-79
2022/04/21 12:29:48;;;;;;;2.95;2.58;;;;;;;7.45;72.82;100314.31;4938098;29;20585;-80
2022/04/21 12:32:27;;;;;;;5.00;2.67;;;;;;;7.21;72.52;100262.66;4939126;29;20126;-79
2022/04/21 12:34:58;;;;;;;5.40;2.70;;;;;;;7.49;72.49;100329.16;4938820;29;20584;-78
2022/04/21 12:37:25;;;;;;;5.13;2.70;;;;;;;7.25;72.30;100285.25;4939562;29;20497;-79
2022/04/21 12:39:54;;;;;;;3.15;2.60;;;;;;;7.35;72.42;100311.47;4938150;29;20474;-79
2022/04/21 12:42:42;;;;;;;4.00;2.60;;;;;;;7.46;72.30;100339.47;4938426;29;20051;-81
2022/04/21 12:45:13;;;;;;;4.00;2.85;;;;;;;7.36;72.52;100287.25;4937005;29;20055;-80